sensor_id;sensor_type;location;lat;lon;timestamp;P1;durP1;ratioP1;P2;durP2;ratioP2
37275;SDS011;23166;51.150;21.620;2022-10-16T00:00:22;24.20;;;9.75;;
37275;SDS011;23166;51.150;21.620;2022-10-16T00:02:50;14.53;;;8.25;;
37275;SDS011;23166;51.150;21.620;2022-10-16T00:05:17;16.90;;;9.55;;
37275;SDS011;23166;51.150;21.620;2022-10-16T00:07:43;29.27;;;8.83;;
37275;SDS011;23166;51.150;21.620;2022-10-16T00:10:10;15.45;;;8.68;;
37275;SDS011;23166;51.150;21.620;2022-10-16T00:12:36;21.57;;;9.68;;
37275;SDS011;23166;51.150;21.620;2022-10-16T00:15:03;19.92;;;8.85;;
37275;SDS011;23166;51.150;21.620;2022-10-16T00:17:29;17.80;;;8.98;;
37275;SDS011;23166;51.150;21.620;2022-10-16T00:19:56;15.30;;;9.03;;
37275;SDS011;23166;51.150;21.620;2022-10-16T00:22:23;16.17;;;9.45;;
37275;SDS011;23166;51.150;21.620;2022-10-16T00:24:50;14.33;;;7.55;;
37275;SDS011;23166;51.150;21.620;2022-10-16T00:27:16;18.48;;;9.60;;
37275;SDS011;23166;51.150;21.620;2022-10-16T00:29:43;24.30;;;10.72;;
37275;SDS011;23166;51.150;21.620;2022-10-16T00:32:09;23.90;;;10.23;;
37275;SDS011;23166;51.150;21.620;2022-10-16T00:34:35;20.82;;;9.80;;
37275;SDS011;23166;51.150;21.620;2022-10-16T00:37:02;21.90;;;8.90;;
37275;SDS011;23166;51.150;21.620;2022-10-16T00:39:28;24.20;;;9.63;;
37275;SDS011;23166;51.150;21.620;2022-10-16T00:41:55;15.75;;;9.30;;
37275;SDS011;23166;51.150;21.620;2022-10-16T00:47:42;18.98;;;8.75;;
37275;SDS011;23166;51.150;21.620;2022-10-16T00:50:08;14.43;;;8.23;;
37275;SDS011;23166;51.150;21.620;2022-10-16T00:52:37;17.80;;;9.15;;
37275;SDS011;23166;51.150;21.620;2022-10-16T00:55:07;14.18;;;7.75;;
37275;SDS011;23166;51.150;21.620;2022-10-16T00:57:35;19.55;;;9.23;;
37275;SDS011;23166;51.150;21.620;2022-10-16T01:00:04;16.93;;;8.20;;
37275;SDS011;23166;51.150;21.620;2022-10-16T01:02:31;17.87;;;8.53;;
37275;SDS011;23166;51.150;21.620;2022-10-16T01:04:58;18.45;;;10.50;;
37275;SDS011;23166;51.150;21.620;2022-10-16T01:10:14;19.20;;;9.20;;
37275;SDS011;23166;51.150;21.620;2022-10-16T01:15:46;16.80;;;8.63;;
37275;SDS011;23166;51.150;21.620;2022-10-16T01:18:19;18.05;;;8.23;;
37275;SDS011;23166;51.150;21.620;2022-10-16T01:21:12;19.98;;;8.88;;
37275;SDS011;23166;51.150;21.620;2022-10-16T01:23:38;18.80;;;7.70;;
37275;SDS011;23166;51.150;21.620;2022-10-16T01:31:39;11.00;;;7.37;;
37275;SDS011;23166;51.150;21.620;2022-10-16T01:34:10;16.87;;;8.75;;
37275;SDS011;23166;51.150;21.620;2022-10-16T01:36:40;15.83;;;8.95;;
37275;SDS011;23166;51.150;21.620;2022-10-16T01:39:09;14.70;;;7.17;;
37275;SDS011;23166;51.150;21.620;2022-10-16T01:41:38;18.60;;;8.45;;
37275;SDS011;23166;51.150;21.620;2022-10-16T01:46:43;13.88;;;7.85;;
37275;SDS011;23166;51.150;21.620;2022-10-16T01:49:13;18.50;;;8.23;;
37275;SDS011;23166;51.150;21.620;2022-10-16T01:51:39;12.20;;;7.45;;
37275;SDS011;23166;51.150;21.620;2022-10-16T01:54:09;17.02;;;7.58;;
37275;SDS011;23166;51.150;21.620;2022-10-16T01:56:39;16.35;;;8.70;;
37275;SDS011;23166;51.150;21.620;2022-10-16T01:59:12;14.25;;;7.58;;
37275;SDS011;23166;51.150;21.620;2022-10-16T02:01:37;17.87;;;7.22;;
37275;SDS011;23166;51.150;21.620;2022-10-16T02:04:21;13.20;;;6.95;;
37275;SDS011;23166;51.150;21.620;2022-10-16T02:06:48;16.87;;;7.83;;
37275;SDS011;23166;51.150;21.620;2022-10-16T02:09:15;21.07;;;10.00;;
37275;SDS011;23166;51.150;21.620;2022-10-16T02:11:43;16.77;;;7.65;;
37275;SDS011;23166;51.150;21.620;2022-10-16T02:14:10;16.40;;;8.73;;
37275;SDS011;23166;51.150;21.620;2022-10-16T02:16:41;16.97;;;7.67;;
37275;SDS011;23166;51.150;21.620;2022-10-16T02:19:06;18.60;;;7.85;;
37275;SDS011;23166;51.150;21.620;2022-10-16T02:21:39;13.08;;;7.47;;
37275;SDS011;23166;51.150;21.620;2022-10-16T02:27:10;23.95;;;8.60;;
37275;SDS011;23166;51.150;21.620;2022-10-16T02:29:43;13.45;;;6.30;;
37275;SDS011;23166;51.150;21.620;2022-10-16T02:32:17;17.30;;;7.58;;
37275;SDS011;23166;51.150;21.620;2022-10-16T02:34:46;19.42;;;8.38;;
37275;SDS011;23166;51.150;21.620;2022-10-16T02:37:15;17.23;;;7.75;;
37275;SDS011;23166;51.150;21.620;2022-10-16T02:39:43;14.10;;;6.65;;
37275;SDS011;23166;51.150;21.620;2022-10-16T02:42:15;17.40;;;7.83;;
37275;SDS011;23166;51.150;21.620;2022-10-16T02:44:39;12.13;;;6.72;;
37275;SDS011;23166;51.150;21.620;2022-10-16T02:47:06;12.53;;;7.90;;
37275;SDS011;23166;51.150;21.620;2022-10-16T02:49:32;20.85;;;8.20;;
37275;SDS011;23166;51.150;21.620;2022-10-16T02:51:59;14.47;;;7.85;;
37275;SDS011;23166;51.150;21.620;2022-10-16T02:54:25;14.93;;;8.18;;
37275;SDS011;23166;51.150;21.620;2022-10-16T02:56:52;11.55;;;7.08;;
37275;SDS011;23166;51.150;21.620;2022-10-16T02:59:18;13.03;;;7.67;;
37275;SDS011;23166;51.150;21.620;2022-10-16T03:01:44;15.23;;;7.72;;
37275;SDS011;23166;51.150;21.620;2022-10-16T03:04:11;17.17;;;7.95;;
37275;SDS011;23166;51.150;21.620;2022-10-16T03:06:37;12.15;;;7.60;;
37275;SDS011;23166;51.150;21.620;2022-10-16T03:09:04;15.00;;;7.97;;
37275;SDS011;23166;51.150;21.620;2022-10-16T03:11:30;17.25;;;7.62;;
37275;SDS011;23166;51.150;21.620;2022-10-16T03:13:56;14.50;;;8.18;;
37275;SDS011;23166;51.150;21.620;2022-10-16T03:16:23;18.25;;;8.83;;
37275;SDS011;23166;51.150;21.620;2022-10-16T03:18:49;15.50;;;7.72;;
37275;SDS011;23166;51.150;21.620;2022-10-16T03:21:15;13.48;;;7.53;;
37275;SDS011;23166;51.150;21.620;2022-10-16T03:23:42;14.63;;;7.28;;
37275;SDS011;23166;51.150;21.620;2022-10-16T03:26:08;15.55;;;7.33;;
37275;SDS011;23166;51.150;21.620;2022-10-16T03:28:35;17.42;;;9.28;;
37275;SDS011;23166;51.150;21.620;2022-10-16T03:31:01;14.45;;;7.95;;
37275;SDS011;23166;51.150;21.620;2022-10-16T03:33:27;14.07;;;7.42;;
37275;SDS011;23166;51.150;21.620;2022-10-16T03:35:54;13.45;;;7.70;;
37275;SDS011;23166;51.150;21.620;2022-10-16T03:38:21;14.45;;;7.37;;
37275;SDS011;23166;51.150;21.620;2022-10-16T03:40:47;28.95;;;8.43;;
37275;SDS011;23166;51.150;21.620;2022-10-16T03:43:14;21.62;;;8.05;;
37275;SDS011;23166;51.150;21.620;2022-10-16T03:45:40;14.05;;;7.60;;
37275;SDS011;23166;51.150;21.620;2022-10-16T03:48:06;15.23;;;8.83;;
37275;SDS011;23166;51.150;21.620;2022-10-16T03:50:33;17.55;;;6.97;;
37275;SDS011;23166;51.150;21.620;2022-10-16T03:52:59;12.53;;;7.45;;
37275;SDS011;23166;51.150;21.620;2022-10-16T03:55:26;14.05;;;8.75;;
37275;SDS011;23166;51.150;21.620;2022-10-16T03:57:52;13.78;;;7.08;;
37275;SDS011;23166;51.150;21.620;2022-10-16T04:00:18;12.80;;;8.10;;
37275;SDS011;23166;51.150;21.620;2022-10-16T04:02:45;18.27;;;9.03;;
37275;SDS011;23166;51.150;21.620;2022-10-16T04:05:11;15.65;;;9.00;;
37275;SDS011;23166;51.150;21.620;2022-10-16T04:07:37;16.52;;;8.80;;
37275;SDS011;23166;51.150;21.620;2022-10-16T04:10:04;19.67;;;8.45;;
37275;SDS011;23166;51.150;21.620;2022-10-16T04:14:57;17.57;;;6.97;;
37275;SDS011;23166;51.150;21.620;2022-10-16T04:17:23;15.32;;;7.80;;
37275;SDS011;23166;51.150;21.620;2022-10-16T04:19:50;12.63;;;6.28;;
37275;SDS011;23166;51.150;21.620;2022-10-16T04:22:16;19.40;;;8.88;;
37275;SDS011;23166;51.150;21.620;2022-10-16T04:24:43;18.92;;;7.47;;
37275;SDS011;23166;51.150;21.620;2022-10-16T04:27:09;13.83;;;7.20;;
37275;SDS011;23166;51.150;21.620;2022-10-16T04:29:35;24.02;;;9.48;;
37275;SDS011;23166;51.150;21.620;2022-10-16T04:32:02;13.25;;;7.40;;
37275;SDS011;23166;51.150;21.620;2022-10-16T04:34:28;17.57;;;8.83;;
37275;SDS011;23166;51.150;21.620;2022-10-16T04:36:54;15.08;;;8.20;;
37275;SDS011;23166;51.150;21.620;2022-10-16T04:39:21;11.15;;;5.97;;
37275;SDS011;23166;51.150;21.620;2022-10-16T04:41:47;14.87;;;7.75;;
37275;SDS011;23166;51.150;21.620;2022-10-16T04:44:13;26.45;;;8.85;;
37275;SDS011;23166;51.150;21.620;2022-10-16T04:46:40;19.15;;;8.45;;
37275;SDS011;23166;51.150;21.620;2022-10-16T04:49:06;18.45;;;8.23;;
37275;SDS011;23166;51.150;21.620;2022-10-16T04:51:32;14.83;;;7.33;;
37275;SDS011;23166;51.150;21.620;2022-10-16T04:53:59;15.88;;;8.50;;
37275;SDS011;23166;51.150;21.620;2022-10-16T04:56:25;16.12;;;7.65;;
37275;SDS011;23166;51.150;21.620;2022-10-16T04:58:52;16.12;;;7.72;;
37275;SDS011;23166;51.150;21.620;2022-10-16T05:01:18;14.90;;;8.43;;
37275;SDS011;23166;51.150;21.620;2022-10-16T05:03:44;12.15;;;7.30;;
37275;SDS011;23166;51.150;21.620;2022-10-16T05:06:11;14.25;;;7.60;;
37275;SDS011;23166;51.150;21.620;2022-10-16T05:08:37;18.73;;;8.38;;
37275;SDS011;23166;51.150;21.620;2022-10-16T05:11:04;15.05;;;6.87;;
37275;SDS011;23166;51.150;21.620;2022-10-16T05:13:30;13.70;;;7.92;;
37275;SDS011;23166;51.150;21.620;2022-10-16T05:15:57;15.80;;;7.35;;
37275;SDS011;23166;51.150;21.620;2022-10-16T05:18:23;17.05;;;7.25;;
37275;SDS011;23166;51.150;21.620;2022-10-16T05:20:50;16.67;;;6.80;;
37275;SDS011;23166;51.150;21.620;2022-10-16T05:23:16;16.77;;;7.60;;
37275;SDS011;23166;51.150;21.620;2022-10-16T05:25:42;17.87;;;8.80;;
37275;SDS011;23166;51.150;21.620;2022-10-16T05:28:09;15.00;;;8.45;;
37275;SDS011;23166;51.150;21.620;2022-10-16T05:30:36;16.70;;;7.15;;
37275;SDS011;23166;51.150;21.620;2022-10-16T05:33:03;17.37;;;8.73;;
37275;SDS011;23166;51.150;21.620;2022-10-16T05:35:29;17.07;;;8.85;;
37275;SDS011;23166;51.150;21.620;2022-10-16T05:37:56;16.45;;;7.85;;
37275;SDS011;23166;51.150;21.620;2022-10-16T05:40:22;16.05;;;7.65;;
37275;SDS011;23166;51.150;21.620;2022-10-16T05:42:49;13.98;;;6.90;;
37275;SDS011;23166;51.150;21.620;2022-10-16T05:45:15;14.30;;;6.65;;
37275;SDS011;23166;51.150;21.620;2022-10-16T05:47:41;14.10;;;7.50;;
37275;SDS011;23166;51.150;21.620;2022-10-16T05:50:08;13.60;;;7.45;;
37275;SDS011;23166;51.150;21.620;2022-10-16T05:52:34;14.05;;;6.53;;
37275;SDS011;23166;51.150;21.620;2022-10-16T05:55:01;15.08;;;7.62;;
37275;SDS011;23166;51.150;21.620;2022-10-16T05:57:28;15.48;;;8.03;;
37275;SDS011;23166;51.150;21.620;2022-10-16T05:59:54;17.57;;;7.42;;
37275;SDS011;23166;51.150;21.620;2022-10-16T06:02:21;18.90;;;7.25;;
37275;SDS011;23166;51.150;21.620;2022-10-16T06:04:47;10.93;;;6.25;;
37275;SDS011;23166;51.150;21.620;2022-10-16T06:07:14;17.00;;;7.80;;
37275;SDS011;23166;51.150;21.620;2022-10-16T06:12:07;13.13;;;6.90;;
37275;SDS011;23166;51.150;21.620;2022-10-16T06:14:33;15.25;;;7.37;;
37275;SDS011;23166;51.150;21.620;2022-10-16T06:16:59;15.15;;;6.83;;
37275;SDS011;23166;51.150;21.620;2022-10-16T06:19:26;10.43;;;7.53;;
37275;SDS011;23166;51.150;21.620;2022-10-16T06:21:52;13.53;;;7.65;;
37275;SDS011;23166;51.150;21.620;2022-10-16T06:24:18;13.10;;;7.17;;
37275;SDS011;23166;51.150;21.620;2022-10-16T06:26:45;12.50;;;6.53;;
37275;SDS011;23166;51.150;21.620;2022-10-16T06:29:11;16.30;;;7.53;;
37275;SDS011;23166;51.150;21.620;2022-10-16T06:31:38;11.20;;;6.17;;
37275;SDS011;23166;51.150;21.620;2022-10-16T06:34:04;14.15;;;6.87;;
37275;SDS011;23166;51.150;21.620;2022-10-16T06:36:32;14.23;;;6.75;;
37275;SDS011;23166;51.150;21.620;2022-10-16T06:39:02;13.08;;;6.50;;
37275;SDS011;23166;51.150;21.620;2022-10-16T06:41:28;15.63;;;6.50;;
37275;SDS011;23166;51.150;21.620;2022-10-16T06:43:55;14.47;;;7.45;;
37275;SDS011;23166;51.150;21.620;2022-10-16T06:46:22;12.63;;;6.45;;
37275;SDS011;23166;51.150;21.620;2022-10-16T06:48:50;11.85;;;6.45;;
37275;SDS011;23166;51.150;21.620;2022-10-16T06:51:20;10.25;;;6.00;;
37275;SDS011;23166;51.150;21.620;2022-10-16T06:53:48;13.70;;;6.15;;
37275;SDS011;23166;51.150;21.620;2022-10-16T06:56:17;17.95;;;6.70;;
37275;SDS011;23166;51.150;21.620;2022-10-16T06:58:45;13.93;;;6.65;;
37275;SDS011;23166;51.150;21.620;2022-10-16T07:01:12;11.33;;;6.45;;
37275;SDS011;23166;51.150;21.620;2022-10-16T07:03:40;13.98;;;5.92;;
37275;SDS011;23166;51.150;21.620;2022-10-16T07:06:08;10.53;;;6.17;;
37275;SDS011;23166;51.150;21.620;2022-10-16T07:08:36;12.98;;;6.45;;
37275;SDS011;23166;51.150;21.620;2022-10-16T07:11:05;11.63;;;6.40;;
37275;SDS011;23166;51.150;21.620;2022-10-16T07:13:34;11.53;;;7.10;;
37275;SDS011;23166;51.150;21.620;2022-10-16T07:16:14;15.23;;;7.45;;
37275;SDS011;23166;51.150;21.620;2022-10-16T07:18:38;10.87;;;5.07;;
37275;SDS011;23166;51.150;21.620;2022-10-16T07:21:06;13.80;;;5.95;;
37275;SDS011;23166;51.150;21.620;2022-10-16T07:23:35;10.85;;;6.17;;
37275;SDS011;23166;51.150;21.620;2022-10-16T07:26:01;12.20;;;5.90;;
37275;SDS011;23166;51.150;21.620;2022-10-16T07:30:55;12.68;;;5.80;;
37275;SDS011;23166;51.150;21.620;2022-10-16T07:33:21;11.70;;;5.85;;
37275;SDS011;23166;51.150;21.620;2022-10-16T07:35:48;13.35;;;5.95;;
37275;SDS011;23166;51.150;21.620;2022-10-16T07:38:18;15.05;;;5.20;;
37275;SDS011;23166;51.150;21.620;2022-10-16T07:40:46;12.63;;;6.53;;
37275;SDS011;23166;51.150;21.620;2022-10-16T07:43:12;10.55;;;6.05;;
37275;SDS011;23166;51.150;21.620;2022-10-16T07:45:57;11.63;;;5.62;;
37275;SDS011;23166;51.150;21.620;2022-10-16T07:48:15;9.83;;;5.33;;
37275;SDS011;23166;51.150;21.620;2022-10-16T07:50:42;12.68;;;5.53;;
37275;SDS011;23166;51.150;21.620;2022-10-16T07:53:08;7.75;;;5.62;;
37275;SDS011;23166;51.150;21.620;2022-10-16T07:55:35;8.20;;;4.47;;
37275;SDS011;23166;51.150;21.620;2022-10-16T07:58:01;12.23;;;6.30;;
37275;SDS011;23166;51.150;21.620;2022-10-16T08:00:29;7.80;;;4.92;;
37275;SDS011;23166;51.150;21.620;2022-10-16T08:02:56;12.90;;;5.25;;
37275;SDS011;23166;51.150;21.620;2022-10-16T08:05:27;11.20;;;6.03;;
37275;SDS011;23166;51.150;21.620;2022-10-16T08:07:55;10.82;;;5.33;;
37275;SDS011;23166;51.150;21.620;2022-10-16T08:10:22;21.15;;;6.40;;
37275;SDS011;23166;51.150;21.620;2022-10-16T08:12:50;11.48;;;4.75;;
37275;SDS011;23166;51.150;21.620;2022-10-16T08:15:17;8.95;;;5.47;;
37275;SDS011;23166;51.150;21.620;2022-10-16T08:17:44;13.80;;;5.60;;
37275;SDS011;23166;51.150;21.620;2022-10-16T08:20:13;13.30;;;5.67;;
37275;SDS011;23166;51.150;21.620;2022-10-16T08:22:39;8.95;;;5.47;;
37275;SDS011;23166;51.150;21.620;2022-10-16T08:25:05;12.65;;;5.35;;
37275;SDS011;23166;51.150;21.620;2022-10-16T08:27:32;10.63;;;5.35;;
37275;SDS011;23166;51.150;21.620;2022-10-16T08:29:59;7.47;;;4.80;;
37275;SDS011;23166;51.150;21.620;2022-10-16T08:32:25;8.65;;;5.12;;
37275;SDS011;23166;51.150;21.620;2022-10-16T08:34:51;9.65;;;4.75;;
37275;SDS011;23166;51.150;21.620;2022-10-16T08:37:19;10.48;;;5.70;;
37275;SDS011;23166;51.150;21.620;2022-10-16T08:39:45;33.88;;;5.72;;
37275;SDS011;23166;51.150;21.620;2022-10-16T08:50:27;9.33;;;4.85;;
37275;SDS011;23166;51.150;21.620;2022-10-16T08:52:52;7.90;;;4.85;;
37275;SDS011;23166;51.150;21.620;2022-10-16T08:58:05;7.83;;;4.87;;
37275;SDS011;23166;51.150;21.620;2022-10-16T09:00:38;10.13;;;5.30;;
37275;SDS011;23166;51.150;21.620;2022-10-16T09:03:22;9.35;;;5.85;;
37275;SDS011;23166;51.150;21.620;2022-10-16T09:20:14;16.05;;;5.40;;
37275;SDS011;23166;51.150;21.620;2022-10-16T09:22:42;13.35;;;4.90;;
37275;SDS011;23166;51.150;21.620;2022-10-16T09:25:13;12.50;;;5.22;;
37275;SDS011;23166;51.150;21.620;2022-10-16T09:27:42;9.78;;;5.55;;
37275;SDS011;23166;51.150;21.620;2022-10-16T09:30:15;8.35;;;4.90;;
37275;SDS011;23166;51.150;21.620;2022-10-16T09:32:44;8.70;;;4.92;;
37275;SDS011;23166;51.150;21.620;2022-10-16T09:35:17;10.70;;;5.87;;
37275;SDS011;23166;51.150;21.620;2022-10-16T09:37:46;8.00;;;4.28;;
37275;SDS011;23166;51.150;21.620;2022-10-16T09:40:37;10.45;;;4.65;;
37275;SDS011;23166;51.150;21.620;2022-10-16T09:42:54;9.43;;;5.10;;
37275;SDS011;23166;51.150;21.620;2022-10-16T09:45:22;8.98;;;4.92;;
37275;SDS011;23166;51.150;21.620;2022-10-16T09:47:49;9.93;;;4.72;;
37275;SDS011;23166;51.150;21.620;2022-10-16T09:50:21;13.08;;;5.55;;
37275;SDS011;23166;51.150;21.620;2022-10-16T09:52:49;5.47;;;4.55;;
37275;SDS011;23166;51.150;21.620;2022-10-16T09:55:17;10.45;;;4.72;;
37275;SDS011;23166;51.150;21.620;2022-10-16T09:57:50;6.00;;;4.25;;
37275;SDS011;23166;51.150;21.620;2022-10-16T10:00:18;9.93;;;4.95;;
37275;SDS011;23166;51.150;21.620;2022-10-16T10:02:44;7.58;;;3.83;;
37275;SDS011;23166;51.150;21.620;2022-10-16T10:05:20;5.45;;;4.45;;
37275;SDS011;23166;51.150;21.620;2022-10-16T10:07:45;9.53;;;4.37;;
37275;SDS011;23166;51.150;21.620;2022-10-16T10:10:21;9.15;;;4.15;;
37275;SDS011;23166;51.150;21.620;2022-10-16T10:12:50;8.15;;;4.65;;
37275;SDS011;23166;51.150;21.620;2022-10-16T10:15:16;8.98;;;5.85;;
37275;SDS011;23166;51.150;21.620;2022-10-16T10:17:52;7.83;;;3.80;;
37275;SDS011;23166;51.150;21.620;2022-10-16T10:22:56;8.50;;;4.72;;
37275;SDS011;23166;51.150;21.620;2022-10-16T10:31:03;7.50;;;4.87;;
37275;SDS011;23166;51.150;21.620;2022-10-16T10:36:25;15.45;;;4.33;;
37275;SDS011;23166;51.150;21.620;2022-10-16T10:39:15;9.48;;;4.30;;
37275;SDS011;23166;51.150;21.620;2022-10-16T10:42:00;5.97;;;3.67;;
37275;SDS011;23166;51.150;21.620;2022-10-16T10:47:02;6.85;;;4.87;;
37275;SDS011;23166;51.150;21.620;2022-10-16T11:01:12;9.78;;;4.78;;
37275;SDS011;23166;51.150;21.620;2022-10-16T11:03:42;6.17;;;4.20;;
37275;SDS011;23166;51.150;21.620;2022-10-16T11:09:02;7.55;;;4.22;;
37275;SDS011;23166;51.150;21.620;2022-10-16T11:14:28;7.87;;;4.40;;
37275;SDS011;23166;51.150;21.620;2022-10-16T11:16:58;8.15;;;4.45;;
37275;SDS011;23166;51.150;21.620;2022-10-16T11:27:39;9.88;;;4.92;;
37275;SDS011;23166;51.150;21.620;2022-10-16T11:30:25;10.70;;;5.10;;
37275;SDS011;23166;51.150;21.620;2022-10-16T11:40:47;11.35;;;4.60;;
37275;SDS011;23166;51.150;21.620;2022-10-16T11:45:50;6.97;;;4.70;;
37275;SDS011;23166;51.150;21.620;2022-10-16T11:56:37;7.47;;;4.78;;
37275;SDS011;23166;51.150;21.620;2022-10-16T12:02:07;9.13;;;4.92;;
37275;SDS011;23166;51.150;21.620;2022-10-16T12:04:40;10.18;;;4.47;;
37275;SDS011;23166;51.150;21.620;2022-10-16T12:07:11;6.97;;;4.03;;
37275;SDS011;23166;51.150;21.620;2022-10-16T12:09:40;6.58;;;3.75;;
37275;SDS011;23166;51.150;21.620;2022-10-16T12:12:26;9.83;;;4.72;;
37275;SDS011;23166;51.150;21.620;2022-10-16T12:15:18;6.25;;;3.70;;
37275;SDS011;23166;51.150;21.620;2022-10-16T12:17:37;6.97;;;4.53;;
37275;SDS011;23166;51.150;21.620;2022-10-16T12:20:53;7.42;;;4.50;;
37275;SDS011;23166;51.150;21.620;2022-10-16T12:22:56;7.80;;;4.40;;
37275;SDS011;23166;51.150;21.620;2022-10-16T12:25:35;11.88;;;4.37;;
37275;SDS011;23166;51.150;21.620;2022-10-16T12:28:15;7.45;;;4.15;;
37275;SDS011;23166;51.150;21.620;2022-10-16T12:30:52;7.15;;;4.03;;
37275;SDS011;23166;51.150;21.620;2022-10-16T12:33:27;7.10;;;4.28;;
37275;SDS011;23166;51.150;21.620;2022-10-16T12:35:55;6.75;;;4.05;;
37275;SDS011;23166;51.150;21.620;2022-10-16T12:41:23;8.45;;;3.98;;
37275;SDS011;23166;51.150;21.620;2022-10-16T12:43:44;10.03;;;3.58;;
37275;SDS011;23166;51.150;21.620;2022-10-16T12:48:44;5.25;;;3.75;;
37275;SDS011;23166;51.150;21.620;2022-10-16T12:51:19;7.03;;;4.33;;
37275;SDS011;23166;51.150;21.620;2022-10-16T12:54:04;6.17;;;4.08;;
37275;SDS011;23166;51.150;21.620;2022-10-16T13:05:22;6.35;;;3.77;;
37275;SDS011;23166;51.150;21.620;2022-10-16T13:10:31;8.15;;;4.75;;
37275;SDS011;23166;51.150;21.620;2022-10-16T13:29:53;6.33;;;4.03;;
37275;SDS011;23166;51.150;21.620;2022-10-16T13:32:22;6.47;;;4.10;;
37275;SDS011;23166;51.150;21.620;2022-10-16T13:34:48;6.50;;;3.50;;
37275;SDS011;23166;51.150;21.620;2022-10-16T13:37:18;5.47;;;3.65;;
37275;SDS011;23166;51.150;21.620;2022-10-16T13:39:46;6.90;;;3.52;;
37275;SDS011;23166;51.150;21.620;2022-10-16T13:47:20;6.15;;;4.40;;
37275;SDS011;23166;51.150;21.620;2022-10-16T13:49:43;9.20;;;4.17;;
37275;SDS011;23166;51.150;21.620;2022-10-16T13:52:21;8.08;;;3.40;;
37275;SDS011;23166;51.150;21.620;2022-10-16T13:54:48;7.47;;;4.25;;
37275;SDS011;23166;51.150;21.620;2022-10-16T13:57:15;6.53;;;4.20;;
37275;SDS011;23166;51.150;21.620;2022-10-16T13:59:42;8.68;;;4.17;;
37275;SDS011;23166;51.150;21.620;2022-10-16T14:04:45;6.70;;;3.87;;
37275;SDS011;23166;51.150;21.620;2022-10-16T14:07:18;4.85;;;3.02;;
37275;SDS011;23166;51.150;21.620;2022-10-16T14:09:51;9.98;;;3.83;;
37275;SDS011;23166;51.150;21.620;2022-10-16T14:12:19;6.22;;;3.92;;
37275;SDS011;23166;51.150;21.620;2022-10-16T14:14:52;8.68;;;5.20;;
37275;SDS011;23166;51.150;21.620;2022-10-16T14:17:22;12.55;;;4.55;;
37275;SDS011;23166;51.150;21.620;2022-10-16T14:19:50;6.72;;;3.33;;
37275;SDS011;23166;51.150;21.620;2022-10-16T14:24:56;10.68;;;3.83;;
37275;SDS011;23166;51.150;21.620;2022-10-16T14:27:30;9.35;;;4.12;;
37275;SDS011;23166;51.150;21.620;2022-10-16T14:32:52;7.87;;;4.08;;
37275;SDS011;23166;51.150;21.620;2022-10-16T14:38:02;23.25;;;5.00;;
37275;SDS011;23166;51.150;21.620;2022-10-16T14:40:31;8.15;;;4.45;;
37275;SDS011;23166;51.150;21.620;2022-10-16T14:43:00;13.55;;;4.78;;
37275;SDS011;23166;51.150;21.620;2022-10-16T14:45:29;8.40;;;4.30;;
37275;SDS011;23166;51.150;21.620;2022-10-16T14:47:59;9.40;;;4.28;;
37275;SDS011;23166;51.150;21.620;2022-10-16T14:50:28;8.35;;;4.00;;
37275;SDS011;23166;51.150;21.620;2022-10-16T14:52:54;9.73;;;3.80;;
37275;SDS011;23166;51.150;21.620;2022-10-16T14:55:21;6.65;;;4.10;;
37275;SDS011;23166;51.150;21.620;2022-10-16T14:57:48;7.42;;;4.03;;
37275;SDS011;23166;51.150;21.620;2022-10-16T15:00:15;5.97;;;4.03;;
37275;SDS011;23166;51.150;21.620;2022-10-16T15:02:47;8.58;;;4.17;;
37275;SDS011;23166;51.150;21.620;2022-10-16T15:05:19;9.43;;;4.40;;
37275;SDS011;23166;51.150;21.620;2022-10-16T15:07:48;6.40;;;3.45;;
37275;SDS011;23166;51.150;21.620;2022-10-16T15:12:42;9.25;;;4.45;;
37275;SDS011;23166;51.150;21.620;2022-10-16T15:15:23;8.25;;;4.45;;
37275;SDS011;23166;51.150;21.620;2022-10-16T15:17:54;8.43;;;4.17;;
37275;SDS011;23166;51.150;21.620;2022-10-16T15:20:23;7.25;;;3.40;;
37275;SDS011;23166;51.150;21.620;2022-10-16T15:22:51;12.50;;;4.42;;
37275;SDS011;23166;51.150;21.620;2022-10-16T15:27:53;9.88;;;5.45;;
37275;SDS011;23166;51.150;21.620;2022-10-16T15:30:20;5.22;;;4.05;;
37275;SDS011;23166;51.150;21.620;2022-10-16T15:32:46;8.03;;;4.17;;
37275;SDS011;23166;51.150;21.620;2022-10-16T15:35:13;7.85;;;4.20;;
37275;SDS011;23166;51.150;21.620;2022-10-16T15:37:39;7.95;;;3.90;;
37275;SDS011;23166;51.150;21.620;2022-10-16T15:40:06;7.15;;;4.03;;
37275;SDS011;23166;51.150;21.620;2022-10-16T15:42:34;9.00;;;3.87;;
37275;SDS011;23166;51.150;21.620;2022-10-16T15:45:00;7.65;;;4.45;;
37275;SDS011;23166;51.150;21.620;2022-10-16T15:47:26;6.58;;;3.17;;
37275;SDS011;23166;51.150;21.620;2022-10-16T15:49:53;5.37;;;3.67;;
37275;SDS011;23166;51.150;21.620;2022-10-16T15:52:19;7.75;;;4.70;;
37275;SDS011;23166;51.150;21.620;2022-10-16T15:54:46;7.50;;;4.60;;
37275;SDS011;23166;51.150;21.620;2022-10-16T15:57:12;8.03;;;4.95;;
37275;SDS011;23166;51.150;21.620;2022-10-16T15:59:38;8.98;;;4.70;;
37275;SDS011;23166;51.150;21.620;2022-10-16T16:02:05;10.30;;;4.50;;
37275;SDS011;23166;51.150;21.620;2022-10-16T16:04:31;7.62;;;4.30;;
37275;SDS011;23166;51.150;21.620;2022-10-16T16:06:58;12.55;;;5.20;;
37275;SDS011;23166;51.150;21.620;2022-10-16T16:09:24;14.53;;;4.92;;
37275;SDS011;23166;51.150;21.620;2022-10-16T16:11:50;8.40;;;5.42;;
37275;SDS011;23166;51.150;21.620;2022-10-16T16:14:18;11.00;;;4.75;;
37275;SDS011;23166;51.150;21.620;2022-10-16T16:16:44;10.35;;;4.37;;
37275;SDS011;23166;51.150;21.620;2022-10-16T16:19:10;9.63;;;4.83;;
37275;SDS011;23166;51.150;21.620;2022-10-16T16:21:37;19.05;;;5.17;;
37275;SDS011;23166;51.150;21.620;2022-10-16T16:24:04;12.93;;;5.58;;
37275;SDS011;23166;51.150;21.620;2022-10-16T16:26:32;13.88;;;5.60;;
37275;SDS011;23166;51.150;21.620;2022-10-16T16:29:01;11.00;;;6.17;;
37275;SDS011;23166;51.150;21.620;2022-10-16T16:31:29;14.43;;;7.22;;
37275;SDS011;23166;51.150;21.620;2022-10-16T16:33:57;15.60;;;6.12;;
37275;SDS011;23166;51.150;21.620;2022-10-16T16:36:24;16.62;;;6.92;;
37275;SDS011;23166;51.150;21.620;2022-10-16T16:38:51;12.03;;;6.50;;
37275;SDS011;23166;51.150;21.620;2022-10-16T16:41:19;12.73;;;5.62;;
37275;SDS011;23166;51.150;21.620;2022-10-16T16:43:47;15.55;;;5.80;;
37275;SDS011;23166;51.150;21.620;2022-10-16T16:46:14;14.98;;;5.97;;
37275;SDS011;23166;51.150;21.620;2022-10-16T16:48:41;12.30;;;5.97;;
37275;SDS011;23166;51.150;21.620;2022-10-16T16:51:08;12.00;;;5.05;;
37275;SDS011;23166;51.150;21.620;2022-10-16T16:53:42;11.18;;;5.78;;
37275;SDS011;23166;51.150;21.620;2022-10-16T16:56:09;8.75;;;4.87;;
37275;SDS011;23166;51.150;21.620;2022-10-16T16:58:35;17.15;;;5.87;;
37275;SDS011;23166;51.150;21.620;2022-10-16T17:01:02;9.68;;;5.65;;
37275;SDS011;23166;51.150;21.620;2022-10-16T17:03:29;14.15;;;5.75;;
37275;SDS011;23166;51.150;21.620;2022-10-16T17:06:00;10.48;;;5.40;;
37275;SDS011;23166;51.150;21.620;2022-10-16T17:08:28;13.50;;;5.35;;
37275;SDS011;23166;51.150;21.620;2022-10-16T17:10:56;17.12;;;5.67;;
37275;SDS011;23166;51.150;21.620;2022-10-16T17:13:26;13.00;;;5.45;;
37275;SDS011;23166;51.150;21.620;2022-10-16T17:15:54;10.15;;;6.40;;
37275;SDS011;23166;51.150;21.620;2022-10-16T17:18:21;9.75;;;5.30;;
37275;SDS011;23166;51.150;21.620;2022-10-16T17:20:49;9.55;;;5.42;;